Time;durP1;ratioP1;P1;durP2;ratioP2;P2;SDS_P1;SDS_P2;PMS_P1;PMS_P2;Temp;Humidity;BMP_temperature;BMP_pressure;BME280_temperature;BME280_humidity;BME280_pressure;Samples;Min_cycle;Max_cycle;Signal;HPM_P1;HPM_P2
2022/09/27 00:00:14;;;;;;;1.50;1.10;;;;;;;13.95;62.83;95736.31;5017911;28;20674;-72
2022/09/27 00:02:40;;;;;;;3.47;0.87;;;;;;;13.75;62.92;95736.38;5032803;28;20192;-72
2022/09/27 00:05:06;;;;;;;1.90;1.00;;;;;;;13.87;62.87;95742.63;5032758;28;20208;-73
2022/09/27 00:07:31;;;;;;;2.03;1.10;;;;;;;13.81;62.98;95736.38;5038855;28;20216;-72
2022/09/27 00:09:57;;;;;;;1.10;0.90;;;;;;;13.89;62.75;95731.91;5027472;28;20199;-72
2022/09/27 00:12:23;;;;;;;2.27;1.30;;;;;;;13.84;63.29;95729.91;5037543;28;20191;-72
2022/09/27 00:14:48;;;;;;;2.23;0.90;;;;;;;13.66;63.50;95728.72;5026626;28;20213;-72
2022/09/27 00:17:14;;;;;;;3.33;0.90;;;;;;;13.75;63.49;95731.94;5020498;28;20192;-72
2022/09/27 00:19:39;;;;;;;1.00;0.87;;;;;;;13.48;64.45;95723.34;5028576;28;20196;-72
2022/09/27 00:22:05;;;;;;;1.60;0.90;;;;;;;13.54;63.94;95729.59;5018848;28;20632;-73
2022/09/27 00:24:30;;;;;;;1.73;1.03;;;;;;;13.70;63.59;95718.59;5027484;28;20227;-72
2022/09/27 00:26:56;;;;;;;1.43;0.80;;;;;;;13.46;64.48;95726.16;5038883;28;20200;-72
2022/09/27 00:29:22;;;;;;;1.50;0.97;;;;;;;13.48;64.52;95713.59;5027297;28;20231;-71
2022/09/27 00:31:47;;;;;;;1.57;0.90;;;;;;;13.40;64.78;95718.28;5025302;28;20203;-72
2022/09/27 00:34:22;;;;;;;1.97;1.00;;;;;;;13.46;64.40;95720.91;5015488;28;20192;-72
2022/09/27 00:36:48;;;;;;;1.10;0.80;;;;;;;13.43;64.99;95716.03;5031114;28;20191;-72
2022/09/27 00:39:15;;;;;;;1.00;0.80;;;;;;;13.23;65.66;95713.44;5028708;28;20802;-72
2022/09/27 00:41:41;;;;;;;3.03;0.90;;;;;;;13.28;65.36;95707.56;5026939;28;20500;-72
2022/09/27 00:44:25;;;;;;;1.00;0.80;;;;;;;13.44;65.10;95715.03;5034996;28;20461;-71
2022/09/27 00:47:00;;;;;;;1.07;0.90;;;;;;;13.61;64.79;95710.13;5030310;28;20474;-72
2022/09/27 00:49:29;;;;;;;1.53;0.90;;;;;;;13.60;64.31;95702.44;5040431;28;20441;-72
2022/09/27 00:52:01;;;;;;;1.73;0.90;;;;;;;13.72;64.49;95699.97;5030129;28;20626;-72
2022/09/27 00:54:28;;;;;;;1.10;0.90;;;;;;;13.55;64.62;95694.34;5020356;28;20923;-72
2022/09/27 00:56:54;;;;;;;1.00;0.90;;;;;;;13.62;64.82;95695.94;5030077;28;20424;-72
2022/09/27 00:59:42;;;;;;;1.57;1.00;;;;;;;13.75;64.39;95691.63;5021229;28;20435;-73
2022/09/27 01:02:08;;;;;;;1.83;0.70;;;;;;;13.47;64.80;95696.19;5035025;28;20514;-72
2022/09/27 01:04:35;;;;;;;1.17;0.90;;;;;;;13.22;66.03;95685.53;5019431;28;20463;-71
2022/09/27 01:07:01;;;;;;;2.90;1.00;;;;;;;13.49;65.81;95690.72;5018662;28;20538;-72
2022/09/27 01:09:27;;;;;;;1.43;0.70;;;;;;;13.59;65.32;95691.13;5020568;28;20437;-72
2022/09/27 01:12:00;;;;;;;1.00;0.83;;;;;;;13.72;64.77;95692.06;5036227;28;20198;-71
2022/09/27 01:14:37;;;;;;;1.20;0.80;;;;;;;13.52;65.21;95701.66;5028229;28;20563;-71
2022/09/27 01:17:08;;;;;;;1.10;0.80;;;;;;;13.60;65.10;95695.38;5030636;28;20476;-72
2022/09/27 01:19:49;;;;;;;0.90;0.80;;;;;;;13.61;65.23;95693.53;5027637;28;20623;-72
2022/09/27 01:22:43;;;;;;;1.40;0.83;;;;;;;13.58;65.12;95694.75;5051002;28;20429;-72
2022/09/27 01:25:26;;;;;;;1.30;0.80;;;;;;;13.67;64.88;95693.50;5025970;28;20454;-72
2022/09/27 01:28:17;;;;;;;2.83;0.90;;;;;;;13.73;64.91;95685.78;5028294;28;20430;-72
2022/09/27 01:30:44;;;;;;;1.10;0.87;;;;;;;13.73;64.83;95686.59;5022618;28;20755;-71
2022/09/27 01:33:31;;;;;;;1.10;0.77;;;;;;;13.66;65.08;95680.56;5031689;28;20450;-73
2022/09/27 01:36:26;;;;;;;1.50;0.73;;;;;;;13.73;64.39;95691.06;5019084;28;20459;-72
2022/09/27 01:39:12;;;;;;;0.97;0.70;;;;;;;13.71;64.93;95682.56;5028635;28;20483;-72
2022/09/27 01:41:55;;;;;;;1.23;0.70;;;;;;;13.73;64.96;95681.31;5028835;28;20782;-72
2022/09/27 01:44:36;;;;;;;0.97;0.70;;;;;;;13.73;64.66;95680.53;5035220;28;20443;-72
2022/09/27 01:47:14;;;;;;;0.90;0.77;;;;;;;13.68;65.34;95689.03;5025511;28;20471;-72
2022/09/27 01:49:43;;;;;;;1.83;1.00;;;;;;;13.70;65.19;95689.63;5028459;28;20431;-72
2022/09/27 01:52:10;;;;;;;0.90;0.70;;;;;;;13.78;65.15;95685.97;5030449;28;20458;-72
2022/09/27 01:54:47;;;;;;;1.07;0.70;;;;;;;13.81;64.92;95683.72;5030150;28;20521;-74
2022/09/27 01:57:16;;;;;;;1.53;0.77;;;;;;;13.84;65.16;95687.78;5027822;28;20431;-70
2022/09/27 01:59:46;;;;;;;2.00;0.80;;;;;;;13.85;64.97;95678.84;5025479;28;20423;-72
2022/09/27 02:02:14;;;;;;;0.97;0.77;;;;;;;13.87;64.66;95682.06;5026245;28;20450;-74
2022/09/27 02:04:41;;;;;;;4.10;0.80;;;;;;;13.91;64.80;95688.53;5018087;28;20455;-73
2022/09/27 02:07:14;;;;;;;0.80;0.60;;;;;;;13.90;64.73;95684.28;5030046;28;20978;-72
2022/09/27 02:09:50;;;;;;;0.90;0.80;;;;;;;13.85;64.79;95692.03;5020536;28;20480;-73
2022/09/27 02:12:20;;;;;;;5.47;0.83;;;;;;;13.96;64.88;95690.53;5034159;28;20419;-72
2022/09/27 02:14:53;;;;;;;0.90;0.77;;;;;;;14.00;64.76;95697.00;5023955;28;20473;-74
2022/09/27 02:17:29;;;;;;;4.10;0.67;;;;;;;13.96;65.02;95704.53;5036779;28;20431;-73
2022/09/27 02:20:29;;;;;;;1.53;0.90;;;;;;;14.01;65.35;95706.53;5022118;28;20426;-72
2022/09/27 02:23:11;;;;;;;2.00;0.77;;;;;;;14.05;65.13;95725.34;5040239;28;20853;-72
2022/09/27 02:25:53;;;;;;;2.10;0.70;;;;;;;14.03;65.31;95730.00;5020753;28;20443;-72
2022/09/27 02:28:18;;;;;;;0.80;0.60;;;;;;;14.02;65.21;95734.47;5032716;28;20442;-71
2022/09/27 02:30:44;;;;;;;1.03;0.67;;;;;;;13.95;65.63;95726.59;5014834;28;20803;-73
2022/09/27 02:33:10;;;;;;;2.93;0.70;;;;;;;13.95;65.82;95728.41;5046065;28;20571;-71
2022/09/27 02:35:35;;;;;;;1.13;0.70;;;;;;;13.92;65.46;95729.66;5040744;28;20223;-73
2022/09/27 02:38:03;;;;;;;1.20;0.60;;;;;;;13.78;65.62;95736.81;5023881;28;20227;-73
2022/09/27 02:40:31;;;;;;;1.53;0.70;;;;;;;13.74;65.30;95719.81;5041439;28;20187;-74
2022/09/27 02:42:57;;;;;;;1.53;0.70;;;;;;;13.85;65.10;95717.53;5028165;28;20465;-73
2022/09/27 02:45:47;;;;;;;1.10;0.53;;;;;;;13.82;64.30;95729.28;5038228;28;20442;-73
2022/09/27 02:48:28;;;;;;;1.50;0.70;;;;;;;13.82;64.06;95731.94;5015386;28;20424;-72
2022/09/27 02:51:01;;;;;;;1.30;0.67;;;;;;;13.86;64.10;95735.75;5025327;28;20423;-72
2022/09/27 02:53:59;;;;;;;3.23;0.70;;;;;;;13.65;62.46;95742.13;5016915;28;20441;-72
2022/09/27 02:57:01;;;;;;;0.90;0.60;;;;;;;13.64;62.31;95738.66;5021727;28;20948;-72
2022/09/27 02:59:57;;;;;;;0.83;0.50;;;;;;;13.69;61.66;95753.03;4988750;28;21170;-71
2022/09/27 03:02:49;;;;;;;2.80;0.60;;;;;;;13.71;61.92;95743.09;5017548;28;20431;-70
2022/09/27 03:05:25;;;;;;;1.13;0.60;;;;;;;13.63;61.23;95738.88;5019153;28;20478;-72
2022/09/27 03:07:51;;;;;;;2.40;0.50;;;;;;;13.44;61.46;95738.72;5011515;28;20941;-72
2022/09/27 03:10:19;;;;;;;0.80;0.50;;;;;;;13.34;61.77;95744.38;5021615;28;20439;-71
2022/09/27 03:12:45;;;;;;;1.80;0.70;;;;;;;13.16;61.68;95750.28;5012382;28;20244;-71
2022/09/27 03:15:10;;;;;;;0.97;0.53;;;;;;;13.25;61.50;95753.50;5025995;28;20474;-71
2022/09/27 03:17:36;;;;;;;1.20;0.60;;;;;;;13.29;61.15;95749.44;5014156;28;20219;-71
2022/09/27 03:20:01;;;;;;;2.10;1.20;;;;;;;13.30;61.34;95760.75;5024066;28;20244;-71
2022/09/27 03:22:27;;;;;;;4.27;0.80;;;;;;;13.27;61.13;95756.72;5010010;28;20192;-71
2022/09/27 03:24:52;;;;;;;0.90;0.50;;;;;;;13.24;61.20;95769.50;5019657;28;20203;-70
2022/09/27 03:27:18;;;;;;;3.43;0.60;;;;;;;13.32;61.14;95770.09;5011902;28;20231;-71
2022/09/27 03:29:44;;;;;;;0.90;0.57;;;;;;;13.39;60.79;95771.88;5016218;28;20188;-72
2022/09/27 03:32:09;;;;;;;1.67;0.70;;;;;;;13.32;60.97;95783.25;5012910;28;20761;-71
2022/09/27 03:34:35;;;;;;;1.50;0.77;;;;;;;13.36;61.35;95776.53;5024465;28;20211;-72
2022/09/27 03:37:01;;;;;;;2.07;1.00;;;;;;;13.39;61.16;95788.50;5016652;28;20187;-72
2022/09/27 03:39:26;;;;;;;2.90;0.93;;;;;;;13.42;61.00;95784.66;5035289;28;20651;-71
2022/09/27 03:41:52;;;;;;;4.10;0.77;;;;;;;13.29;61.26;95788.13;5023584;28;20837;-71
2022/09/27 03:44:17;;;;;;;1.90;1.10;;;;;;;13.24;61.30;95799.22;5032918;28;20651;-71
2022/09/27 03:46:43;;;;;;;4.47;1.30;;;;;;;13.13;62.03;95797.19;5033575;28;20291;-70
2022/09/27 03:49:09;;;;;;;2.37;1.00;;;;;;;13.06;62.46;95782.25;5035080;28;20188;-72
2022/09/27 03:51:34;;;;;;;0.90;0.80;;;;;;;13.13;62.23;95786.69;5030758;28;20658;-71
2022/09/27 03:53:59;;;;;;;8.83;1.37;;;;;;;13.25;62.52;95784.25;5030458;28;20194;-73
2022/09/27 03:56:25;;;;;;;3.37;1.37;;;;;;;13.05;62.89;95775.38;5028541;28;20211;-71
2022/09/27 03:58:50;;;;;;;8.67;1.30;;;;;;;13.09;63.17;95772.34;5033814;28;20561;-71
2022/09/27 04:01:16;;;;;;;6.40;1.13;;;;;;;13.19;62.97;95780.63;5032597;28;20237;-72
2022/09/27 04:03:41;;;;;;;7.63;1.17;;;;;;;13.17;62.77;95775.56;5030292;28;20192;-71
2022/09/27 04:06:07;;;;;;;2.93;1.30;;;;;;;13.15;63.07;95776.78;5030709;28;20226;-70
2022/09/27 04:08:33;;;;;;;1.83;1.30;;;;;;;13.28;62.78;95779.41;5032919;28;20310;-72
2022/09/27 04:10:58;;;;;;;6.20;1.33;;;;;;;13.29;62.58;95781.00;5033379;28;20263;-73
2022/09/27 04:13:24;;;;;;;3.87;1.50;;;;;;;13.26;62.60;95775.34;5033411;28;20199;-72
2022/09/27 04:15:50;;;;;;;3.13;1.37;;;;;;;13.32;62.82;95785.06;5034477;28;20207;-73
2022/09/27 04:18:15;;;;;;;3.43;1.50;;;;;;;13.23;62.97;95779.22;5034799;28;20187;-73
2022/09/27 04:20:41;;;;;;;5.87;1.30;;;;;;;13.16;63.12;95775.75;5034138;28;20188;-71
2022/09/27 04:23:06;;;;;;;12.37;1.40;;;;;;;13.26;62.95;95784.03;5032932;28;20191;-71
2022/09/27 04:25:32;;;;;;;4.43;1.70;;;;;;;13.32;62.67;95799.03;5033188;28;20295;-72
2022/09/27 04:28:00;;;;;;;1.90;1.20;;;;;;;13.14;62.94;95797.03;5032710;28;20701;-71
2022/09/27 04:30:25;;;;;;;3.00;1.53;;;;;;;13.07;63.14;95783.03;5031559;28;20639;-71
2022/09/27 04:32:51;;;;;;;3.47;1.60;;;;;;;13.16;63.03;95796.81;5024911;28;20449;-72
2022/09/27 04:38:00;;;;;;;3.90;1.87;;;;;;;13.21;63.27;95797.03;5030374;28;20639;-73
2022/09/27 04:40:26;;;;;;;6.13;2.37;;;;;;;13.11;63.50;95793.97;5033645;28;20428;-72
2022/09/27 04:42:51;;;;;;;3.20;1.67;;;;;;;13.20;63.62;95793.56;5032200;28;20246;-70
2022/09/27 04:45:18;;;;;;;2.83;1.50;;;;;;;13.02;63.69;95807.31;5030840;28;20208;-72
2022/09/27 04:47:44;;;;;;;2.90;1.60;;;;;;;13.00;64.41;95804.09;5031843;28;20697;-72
2022/09/27 04:50:11;;;;;;;4.83;1.70;;;;;;;13.11;63.65;95800.06;5031674;28;20518;-71
2022/09/27 04:52:37;;;;;;;3.83;1.60;;;;;;;13.17;63.53;95803.69;5033168;28;20430;-71
2022/09/27 04:55:03;;;;;;;3.30;1.20;;;;;;;13.26;63.70;95802.47;5032060;28;20987;-71
2022/09/27 04:57:29;;;;;;;2.17;1.40;;;;;;;13.05;64.36;95814.81;5024166;28;20226;-72
2022/09/27 04:59:54;;;;;;;3.73;1.73;;;;;;;13.11;63.87;95809.75;5033005;28;20817;-70
2022/09/27 05:02:20;;;;;;;7.20;2.03;;;;;;;13.17;63.63;95815.00;5037160;28;20635;-72
2022/09/27 05:04:45;;;;;;;2.80;1.80;;;;;;;13.18;64.12;95821.09;5032241;28;20226;-71
2022/09/27 05:07:11;;;;;;;9.77;2.10;;;;;;;13.10;63.78;95829.19;5031354;28;20659;-71
2022/09/27 05:09:36;;;;;;;2.80;2.10;;;;;;;13.18;63.78;95826.34;5032005;28;20188;-72
2022/09/27 05:12:04;;;;;;;7.27;2.00;;;;;;;13.28;63.91;95829.38;5032809;28;20192;-72
2022/09/27 05:14:29;;;;;;;4.53;1.60;;;;;;;13.30;63.80;95839.69;5032446;28;20202;-71
2022/09/27 05:16:55;;;;;;;8.57;2.20;;;;;;;13.16;64.14;95849.41;5031901;28;20914;-71
2022/09/27 05:19:20;;;;;;;6.43;1.90;;;;;;;13.14;63.96;95843.53;5035236;28;20188;-71
2022/09/27 05:21:45;;;;;;;2.77;1.60;;;;;;;13.18;63.84;95842.13;5032534;28;20246;-70
2022/09/27 05:24:11;;;;;;;3.67;1.30;;;;;;;13.21;63.41;95850.44;5031736;28;20192;-72
2022/09/27 05:26:36;;;;;;;4.80;1.70;;;;;;;13.26;63.36;95855.06;5031566;28;20223;-71
2022/09/27 05:29:03;;;;;;;3.40;1.73;;;;;;;13.31;63.05;95854.47;5032302;28;20186;-71
2022/09/27 05:31:28;;;;;;;5.03;1.57;;;;;;;13.28;63.37;95849.63;5025004;28;20202;-73
2022/09/27 05:33:54;;;;;;;4.30;1.73;;;;;;;13.30;62.91;95856.31;5032213;28;20841;-72
2022/09/27 05:36:20;;;;;;;2.43;1.40;;;;;;;13.40;62.82;95865.63;5030990;28;20211;-73
2022/09/27 05:38:45;;;;;;;5.20;1.80;;;;;;;13.17;62.99;95872.06;5027541;28;20434;-71
2022/09/27 05:41:11;;;;;;;1.77;1.67;;;;;;;13.32;62.70;95879.75;5033922;28;20265;-72
2022/09/27 05:43:36;;;;;;;6.50;1.70;;;;;;;13.26;62.42;95880.59;5029694;28;20183;-75
2022/09/27 05:46:04;;;;;;;3.87;1.70;;;;;;;13.23;62.69;95887.06;5032462;28;20258;-72
2022/09/27 05:48:30;;;;;;;2.20;1.10;;;;;;;13.27;62.84;95893.53;5033420;28;20195;-73
2022/09/27 05:50:55;;;;;;;2.17;1.60;;;;;;;13.36;63.07;95896.78;5031950;28;20974;-74
2022/09/27 05:53:21;;;;;;;2.70;1.17;;;;;;;13.40;62.26;95899.84;5031841;28;20517;-73
2022/09/27 05:55:48;;;;;;;2.40;1.57;;;;;;;13.40;62.56;95899.84;5030873;28;20935;-73
2022/09/27 05:58:15;;;;;;;2.70;2.30;;;;;;;13.44;62.83;95904.50;5029865;28;20191;-73
2022/09/27 06:00:42;;;;;;;6.27;1.47;;;;;;;13.42;62.81;95905.72;5029318;28;20466;-73
2022/09/27 06:03:08;;;;;;;3.33;1.40;;;;;;;13.46;63.59;95909.56;5031129;28;20422;-72
2022/09/27 06:05:35;;;;;;;3.13;1.40;;;;;;;13.37;63.18;95914.97;5031367;28;20465;-73
2022/09/27 06:08:09;;;;;;;3.33;1.63;;;;;;;13.21;63.34;95921.44;5030921;28;20438;-73
2022/09/27 06:10:35;;;;;;;2.77;1.40;;;;;;;13.26;63.41;95920.06;5031219;28;20438;-73
2022/09/27 06:13:01;;;;;;;3.90;1.40;;;;;;;12.99;64.20;95922.63;5031883;28;20984;-72
2022/09/27 06:15:27;;;;;;;2.40;1.73;;;;;;;13.09;64.35;95928.31;5023319;28;20469;-73
2022/09/27 06:17:54;;;;;;;3.50;1.50;;;;;;;13.15;63.96;95932.78;5034343;28;20430;-72
2022/09/27 06:20:19;;;;;;;3.30;1.97;;;;;;;13.19;63.73;95933.19;5032238;28;20426;-73
2022/09/27 06:22:45;;;;;;;3.17;1.70;;;;;;;13.13;64.10;95934.81;5031675;28;20485;-72
2022/09/27 06:25:11;;;;;;;1.50;1.40;;;;;;;13.22;63.64;95940.69;5031508;28;20679;-71
2022/09/27 06:27:36;;;;;;;1.83;0.90;;;;;;;13.27;63.08;95938.25;5030758;28;20307;-71
2022/09/27 06:30:04;;;;;;;2.70;1.20;;;;;;;13.32;62.85;95927.13;5031841;28;20529;-73
2022/09/27 06:32:30;;;;;;;1.77;1.07;;;;;;;13.37;62.99;95937.88;5029411;28;20183;-72
2022/09/27 06:34:56;;;;;;;1.60;1.00;;;;;;;13.29;62.37;95938.88;5031165;28;20454;-74
2022/09/27 06:37:25;;;;;;;2.00;0.93;;;;;;;13.37;62.19;95933.41;5029547;28;20472;-72
2022/09/27 06:39:52;;;;;;;1.50;0.70;;;;;;;13.30;61.89;95945.75;5031042;28;20270;-69
2022/09/27 06:42:18;;;;;;;2.80;0.90;;;;;;;13.38;62.28;95947.38;5032571;28;20445;-72
2022/09/27 06:44:43;;;;;;;1.47;0.70;;;;;;;13.33;62.21;95960.31;5028264;28;20481;-71
2022/09/27 06:47:09;;;;;;;2.27;1.10;;;;;;;13.42;61.93;95959.13;5030206;28;20450;-72
2022/09/27 06:49:35;;;;;;;1.20;0.80;;;;;;;13.48;62.06;95958.34;5030730;28;20198;-72
2022/09/27 06:52:00;;;;;;;1.37;0.80;;;;;;;13.53;61.97;95960.38;5030836;28;20861;-70
2022/09/27 06:54:26;;;;;;;1.30;0.70;;;;;;;13.59;61.61;95959.59;5030982;28;20187;-72
2022/09/27 06:56:51;;;;;;;1.10;0.90;;;;;;;13.66;61.68;95965.66;5029997;28;20550;-71
2022/09/27 07:02:00;;;;;;;2.20;1.07;;;;;;;13.72;61.46;95964.03;5030962;28;20187;-72
2022/09/27 07:04:26;;;;;;;0.97;0.83;;;;;;;13.79;61.60;95962.22;5030299;28;20422;-72
2022/09/27 07:06:52;;;;;;;1.00;0.80;;;;;;;13.67;60.88;95977.00;5022706;28;20759;-73
2022/09/27 07:09:18;;;;;;;0.90;0.80;;;;;;;13.69;60.05;95974.16;5011883;28;20188;-73
2022/09/27 07:11:44;;;;;;;1.73;0.87;;;;;;;13.54;60.20;95982.25;5009980;28;20476;-73
2022/09/27 07:14:10;;;;;;;1.53;0.60;;;;;;;13.45;59.68;95979.81;5016154;28;20185;-73
2022/09/27 07:16:36;;;;;;;1.33;0.70;;;;;;;13.35;59.94;95984.63;5022899;28;20454;-73
2022/09/27 07:19:02;;;;;;;0.90;0.60;;;;;;;13.54;59.93;95983.06;5016996;28;21152;-73
2022/09/27 07:21:27;;;;;;;0.80;0.50;;;;;;;13.45;59.48;95992.16;5015885;28;20508;-72
2022/09/27 07:23:53;;;;;;;2.27;1.00;;;;;;;13.55;59.21;95995.22;5021635;28;20655;-74
2022/09/27 07:26:18;;;;;;;0.90;0.60;;;;;;;13.51;59.49;95997.44;5018135;28;20258;-73
2022/09/27 07:28:44;;;;;;;1.00;0.77;;;;;;;13.43;58.93;95997.59;5022485;28;20226;-72
2022/09/27 07:31:11;;;;;;;1.13;0.80;;;;;;;13.47;58.89;96001.47;5019464;28;20192;-74
2022/09/27 07:33:37;;;;;;;1.30;0.80;;;;;;;13.57;58.72;96003.72;5021059;28;20938;-73
2022/09/27 07:36:07;;;;;;;0.90;0.70;;;;;;;13.47;59.00;96004.09;5019524;28;20459;-73
2022/09/27 07:38:32;;;;;;;4.43;1.90;;;;;;;13.55;59.59;96004.91;5015294;28;20481;-72
2022/09/27 07:40:59;;;;;;;2.33;2.13;;;;;;;13.63;58.91;96017.91;5024586;28;20415;-73
2022/09/27 07:43:25;;;;;;;2.20;1.80;;;;;;;13.65;58.88;96024.56;5030464;28;20188;-71
2022/09/27 07:45:50;;;;;;;1.10;0.80;;;;;;;13.68;58.66;96023.34;5035415;28;20447;-71
2022/09/27 07:48:16;;;;;;;0.90;0.70;;;;;;;13.68;58.82;96026.00;5022270;28;20184;-71
2022/09/27 07:50:42;;;;;;;1.03;0.80;;;;;;;13.76;59.26;96027.63;5025711;28;20255;-71
2022/09/27 07:53:11;;;;;;;0.97;0.70;;;;;;;13.74;58.55;96025.19;5026082;28;20269;-72
2022/09/27 07:55:36;;;;;;;1.40;1.30;;;;;;;13.78;58.79;96021.16;5023776;28;20582;-71
2022/09/27 07:58:07;;;;;;;1.00;0.70;;;;;;;13.82;59.16;96022.34;5022707;28;20430;-71
2022/09/27 08:00:33;;;;;;;1.03;0.80;;;;;;;13.94;58.59;96024.38;5025406;28;20188;-73
2022/09/27 08:03:03;;;;;;;1.10;1.00;;;;;;;13.98;58.22;96030.88;5024519;28;20441;-73
2022/09/27 08:05:29;;;;;;;1.20;0.83;;;;;;;13.98;57.47;96036.97;5025785;28;20886;-73
2022/09/27 08:07:57;;;;;;;1.00;0.80;;;;;;;13.98;57.60;96039.63;5026753;28;20542;-72
2022/09/27 08:10:26;;;;;;;2.83;2.30;;;;;;;14.22;58.04;96041.81;5019552;28;20644;-72
2022/09/27 08:12:51;;;;;;;1.30;1.00;;;;;;;14.27;57.22;96053.38;5024408;28;20422;-73
2022/09/27 08:15:17;;;;;;;1.70;1.10;;;;;;;14.27;56.57;96053.38;5030134;28;20449;-73
2022/09/27 08:17:42;;;;;;;1.50;0.97;;;;;;;14.35;57.23;96054.97;5023806;28;20595;-73
2022/09/27 08:20:08;;;;;;;4.60;1.10;;;;;;;14.51;57.18;96051.09;5025152;28;20211;-74
2022/09/27 08:22:39;;;;;;;4.10;1.50;;;;;;;14.73;56.74;96056.97;5026373;28;20194;-73
2022/09/27 08:25:05;;;;;;;1.73;1.53;;;;;;;15.10;56.58;96053.84;5032248;28;20453;-72
2022/09/27 08:27:30;;;;;;;2.90;1.20;;;;;;;15.43;55.72;96046.78;5021473;28;20463;-72
2022/09/27 08:29:56;;;;;;;4.07;1.90;;;;;;;15.99;55.47;96061.09;5025685;28;20214;-73
2022/09/27 08:32:21;;;;;;;2.50;2.30;;;;;;;16.33;54.45;96055.53;5025585;28;20180;-73
2022/09/27 08:34:47;;;;;;;1.47;0.90;;;;;;;16.33;52.73;96061.63;5024677;28;20289;-72
2022/09/27 08:37:12;;;;;;;5.93;0.97;;;;;;;16.15;50.66;96080.06;5026250;28;20658;-73
2022/09/27 08:39:39;;;;;;;5.03;1.30;;;;;;;15.98;50.75;96075.31;5026094;28;20184;-73
2022/09/27 08:42:20;;;;;;;2.47;1.93;;;;;;;15.74;51.21;96072.41;5030234;28;20267;-73
2022/09/27 08:45:00;;;;;;;6.73;2.17;;;;;;;15.54;51.89;96080.44;5027536;28;20469;-74
2022/09/27 08:47:37;;;;;;;1.37;0.90;;;;;;;15.26;51.79;96083.38;5030829;28;20465;-73
2022/09/27 08:50:17;;;;;;;2.13;0.93;;;;;;;15.12;51.67;96082.63;5033191;28;20517;-73
2022/09/27 08:52:55;;;;;;;1.30;0.67;;;;;;;14.95;52.12;96083.09;5037136;28;20424;-73
2022/09/27 08:55:35;;;;;;;1.00;0.50;;;;;;;14.76;51.64;96092.66;5031883;28;20798;-73
2022/09/27 08:58:01;;;;;;;4.60;0.80;;;;;;;15.00;51.86;96090.38;5031343;28;20429;-72
2022/09/27 09:00:28;;;;;;;2.80;0.70;;;;;;;15.03;52.21;96084.69;5036317;28;20427;-72
2022/09/27 09:02:55;;;;;;;0.90;0.60;;;;;;;15.12;52.34;96091.34;5031668;28;20434;-73
2022/09/27 09:05:29;;;;;;;2.87;1.00;;;;;;;15.29;51.75;96077.69;5031550;28;20453;-72
2022/09/27 09:07:54;;;;;;;1.10;0.80;;;;;;;15.24;51.38;96074.91;5032058;28;20454;-71
2022/09/27 09:13:21;;;;;;;1.23;0.70;;;;;;;15.60;51.86;96084.88;5031461;28;20593;-73
2022/09/27 09:15:57;;;;;;;1.10;0.70;;;;;;;15.73;51.53;96070.78;5027339;28;20442;-72
2022/09/27 09:18:33;;;;;;;0.90;0.60;;;;;;;15.88;51.67;96073.16;5035884;28;20977;-73
2022/09/27 09:21:29;;;;;;;3.03;0.70;;;;;;;16.14;51.69;96073.97;5033443;28;20513;-72
2022/09/27 09:24:22;;;;;;;2.70;1.10;;;;;;;16.58;49.07;96071.38;5029808;28;20429;-73
2022/09/27 09:26:56;;;;;;;0.90;0.60;;;;;;;17.01;47.17;96065.25;5032233;28;20838;-72
2022/09/27 09:30:00;;;;;;;1.00;0.63;;;;;;;17.22;46.82;96073.78;5024570;28;20489;-72
2022/09/27 09:33:02;;;;;;;0.93;0.70;;;;;;;17.19;45.88;96066.28;5024810;28;20422;-72
2022/09/27 09:35:54;;;;;;;2.70;0.70;;;;;;;17.54;45.44;96062.19;5031421;28;20473;-72
2022/09/27 09:38:33;;;;;;;2.37;1.33;;;;;;;17.96;44.46;96062.19;5023995;28;20817;-71
2022/09/27 09:41:15;;;;;;;2.07;1.30;;;;;;;18.25;43.81;96065.84;5028824;28;20427;-73
2022/09/27 09:43:48;;;;;;;1.00;0.80;;;;;;;18.67;44.38;96064.13;5019245;28;20418;-73
2022/09/27 09:46:20;;;;;;;2.17;1.73;;;;;;;19.08;42.92;96061.56;5029196;28;20477;-73
2022/09/27 09:49:06;;;;;;;3.37;1.70;;;;;;;19.42;41.60;96070.47;5031046;28;20972;-73
2022/09/27 09:51:37;;;;;;;2.47;1.10;;;;;;;19.31;38.98;96061.50;5032809;28;20423;-73
2022/09/27 09:54:25;;;;;;;2.90;1.60;;;;;;;19.15;39.63;96055.06;5031052;28;20422;-72
2022/09/27 09:57:00;;;;;;;3.00;1.10;;;;;;;19.45;39.29;96053.25;5025949;28;20427;-71
2022/09/27 09:59:31;;;;;;;1.90;1.00;;;;;;;19.32;38.83;96055.16;5035206;28;20425;-73
2022/09/27 10:02:00;;;;;;;2.00;1.00;;;;;;;18.92;39.15;96052.44;5031367;28;20509;-73
2022/09/27 10:04:27;;;;;;;5.73;0.90;;;;;;;18.68;39.58;96053.28;5030577;28;21092;-72
2022/09/27 10:06:52;;;;;;;1.60;0.80;;;;;;;19.08;40.06;96054.41;5029375;28;20505;-73
2022/09/27 10:09:21;;;;;;;1.40;0.80;;;;;;;19.33;38.62;96037.34;5022963;28;20459;-71
2022/09/27 10:11:47;;;;;;;2.30;0.90;;;;;;;19.68;38.48;96041.72;5030364;28;20746;-71
2022/09/27 10:14:15;;;;;;;2.00;1.00;;;;;;;19.87;38.56;96039.69;5031475;28;20422;-72
2022/09/27 10:17:09;;;;;;;2.63;1.13;;;;;;;20.24;37.63;96049.06;5030846;28;20524;-72
2022/09/27 10:19:36;;;;;;;1.43;1.03;;;;;;;19.59;37.97;96045.81;5031001;28;20439;-72
2022/09/27 10:22:15;;;;;;;1.17;1.00;;;;;;;19.30;39.42;96059.06;5028306;28;20425;-73
2022/09/27 10:24:57;;;;;;;1.77;0.90;;;;;;;18.88;39.17;96060.88;5030370;28;20434;-72
2022/09/27 10:27:26;;;;;;;4.90;1.27;;;;;;;17.93;40.73;96055.50;5030099;28;20511;-73
2022/09/27 10:29:56;;;;;;;3.27;1.20;;;;;;;17.83;41.62;96065.06;5031474;28;20430;-73
2022/09/27 10:32:30;;;;;;;1.90;0.87;;;;;;;17.58;41.92;96055.41;5029894;28;20433;-73
2022/09/27 10:35:15;;;;;;;2.60;0.97;;;;;;;17.86;42.65;96053.97;5029729;28;20470;-73
2022/09/27 10:37:42;;;;;;;4.80;1.00;;;;;;;18.31;41.45;96047.41;5023973;28;20808;-73
2022/09/27 10:40:29;;;;;;;2.13;1.40;;;;;;;18.93;40.89;96038.13;5028825;28;20430;-73
2022/09/27 10:42:54;;;;;;;1.90;1.10;;;;;;;19.28;40.12;96037.28;5028915;28;20449;-73
2022/09/27 10:45:23;;;;;;;3.67;1.23;;;;;;;19.21;39.61;96047.22;5026642;28;20446;-72
2022/09/27 10:47:48;;;;;;;1.87;0.90;;;;;;;19.13;39.23;96037.75;5031504;28;20586;-73
2022/09/27 10:50:25;;;;;;;2.10;0.93;;;;;;;18.91;39.58;96029.59;5029936;28;20429;-73
2022/09/27 10:53:04;;;;;;;2.20;1.10;;;;;;;18.41;41.10;96029.88;5034779;28;20196;-73
2022/09/27 10:55:33;;;;;;;2.47;1.20;;;;;;;18.51;41.26;96017.88;5017975;28;20438;-74
2022/09/27 10:57:58;;;;;;;2.77;1.00;;;;;;;18.20;41.29;96031.25;5029049;28;20482;-73
2022/09/27 11:00:31;;;;;;;1.50;0.97;;;;;;;18.17;41.61;96044.16;5032678;28;20885;-73
2022/09/27 11:03:13;;;;;;;2.53;1.10;;;;;;;17.99;42.00;96029.97;5032631;28;20263;-72
2022/09/27 11:05:39;;;;;;;4.43;1.03;;;;;;;17.31;42.67;96019.50;5005265;28;20481;-73
2022/09/27 11:08:28;;;;;;;1.40;0.80;;;;;;;17.19;43.57;96023.94;5027069;28;20897;-71
2022/09/27 11:11:15;;;;;;;6.23;1.20;;;;;;;17.41;43.21;96012.84;5024963;28;20825;-72
2022/09/27 11:13:41;;;;;;;3.93;1.00;;;;;;;17.38;43.48;96023.91;5030785;28;20414;-72
2022/09/27 11:16:09;;;;;;;1.73;0.80;;;;;;;17.45;43.41;96012.16;5038556;28;20492;-72
2022/09/27 11:18:54;;;;;;;3.63;0.90;;;;;;;17.05;43.00;96012.72;5028386;28;20425;-72
2022/09/27 11:21:44;;;;;;;3.73;0.93;;;;;;;16.92;43.63;96016.28;5030595;28;20488;-72
2022/09/27 11:25:07;;;;;;;1.47;1.10;;;;;;;16.62;43.64;96014.38;5031313;28;20516;-73
2022/09/27 11:27:35;;;;;;;3.47;0.93;;;;;;;16.41;43.87;96016.41;5006450;28;20471;-72
2022/09/27 11:30:06;;;;;;;1.77;0.90;;;;;;;16.65;43.56;96003.34;5008645;28;20426;-72
2022/09/27 11:32:40;;;;;;;1.40;0.90;;;;;;;16.68;43.61;96010.84;5013834;28;20427;-73
2022/09/27 11:35:43;;;;;;;1.40;0.97;;;;;;;16.77;44.24;96015.81;5038222;28;20874;-72
2022/09/27 11:38:16;;;;;;;1.67;0.70;;;;;;;16.55;44.65;96005.69;5025839;28;20430;-72
2022/09/27 11:41:12;;;;;;;2.93;0.83;;;;;;;16.37;44.90;96009.94;5026699;28;20845;-74
2022/09/27 11:44:06;;;;;;;2.57;0.63;;;;;;;16.47;44.70;96003.34;5020007;28;20419;-70
2022/09/27 11:46:34;;;;;;;1.40;0.87;;;;;;;16.56;45.07;96013.44;5009926;28;20644;-72
2022/09/27 11:49:03;;;;;;;5.63;2.30;;;;;;;16.81;44.97;95999.31;5030648;28;20427;-73
2022/09/27 11:51:40;;;;;;;2.50;1.27;;;;;;;16.78;44.75;96010.34;5034995;28;20419;-74
2022/09/27 11:54:24;;;;;;;2.50;0.80;;;;;;;16.01;46.89;96014.09;5025431;28;20425;-73
2022/09/27 11:57:00;;;;;;;1.67;0.80;;;;;;;16.16;47.02;96007.69;5029565;28;20438;-73
2022/09/27 11:59:51;;;;;;;5.17;1.10;;;;;;;16.71;47.35;96004.28;5029892;28;20430;-73